sensor_id;sensor_type;location;lat;lon;timestamp;P1;durP1;ratioP1;P2;durP2;ratioP2
5684;SDS011;2865;53.114;9.130;2022-07-19T00:00:16;8.77;;;6.80;;
5684;SDS011;2865;53.114;9.130;2022-07-19T00:02:41;8.67;;;6.00;;
5684;SDS011;2865;53.114;9.130;2022-07-19T00:05:07;7.13;;;5.67;;
5684;SDS011;2865;53.114;9.130;2022-07-19T00:07:32;7.63;;;5.87;;
5684;SDS011;2865;53.114;9.130;2022-07-19T00:09:58;8.23;;;6.10;;
5684;SDS011;2865;53.114;9.130;2022-07-19T00:12:23;7.80;;;5.23;;
5684;SDS011;2865;53.114;9.130;2022-07-19T00:14:48;6.90;;;4.90;;
5684;SDS011;2865;53.114;9.130;2022-07-19T00:17:14;8.63;;;5.40;;
5684;SDS011;2865;53.114;9.130;2022-07-19T00:19:39;8.73;;;5.93;;
5684;SDS011;2865;53.114;9.130;2022-07-19T00:22:04;6.10;;;5.50;;
5684;SDS011;2865;53.114;9.130;2022-07-19T00:24:30;7.60;;;6.30;;
5684;SDS011;2865;53.114;9.130;2022-07-19T00:26:55;8.07;;;6.00;;
5684;SDS011;2865;53.114;9.130;2022-07-19T00:29:20;7.70;;;6.10;;
5684;SDS011;2865;53.114;9.130;2022-07-19T00:31:46;8.53;;;6.10;;
5684;SDS011;2865;53.114;9.130;2022-07-19T00:34:11;7.53;;;5.73;;
5684;SDS011;2865;53.114;9.130;2022-07-19T00:36:36;7.17;;;6.13;;
5684;SDS011;2865;53.114;9.130;2022-07-19T00:39:02;10.30;;;7.40;;
5684;SDS011;2865;53.114;9.130;2022-07-19T00:41:27;7.43;;;6.33;;
5684;SDS011;2865;53.114;9.130;2022-07-19T00:43:52;9.00;;;6.53;;
5684;SDS011;2865;53.114;9.130;2022-07-19T00:46:19;7.97;;;5.87;;
5684;SDS011;2865;53.114;9.130;2022-07-19T00:48:43;9.50;;;6.43;;
5684;SDS011;2865;53.114;9.130;2022-07-19T00:51:09;12.63;;;6.60;;
5684;SDS011;2865;53.114;9.130;2022-07-19T00:53:35;8.53;;;6.53;;
5684;SDS011;2865;53.114;9.130;2022-07-19T00:56:03;8.13;;;7.20;;
5684;SDS011;2865;53.114;9.130;2022-07-19T00:58:27;9.10;;;6.80;;
5684;SDS011;2865;53.114;9.130;2022-07-19T01:00:52;9.17;;;6.23;;
5684;SDS011;2865;53.114;9.130;2022-07-19T01:03:18;10.57;;;7.90;;
5684;SDS011;2865;53.114;9.130;2022-07-19T01:05:44;15.03;;;7.13;;
5684;SDS011;2865;53.114;9.130;2022-07-19T01:08:08;11.70;;;7.43;;
5684;SDS011;2865;53.114;9.130;2022-07-19T01:10:34;9.53;;;6.90;;
5684;SDS011;2865;53.114;9.130;2022-07-19T01:12:59;8.60;;;7.70;;
5684;SDS011;2865;53.114;9.130;2022-07-19T01:15:25;11.80;;;7.67;;
5684;SDS011;2865;53.114;9.130;2022-07-19T01:17:50;9.10;;;6.87;;
5684;SDS011;2865;53.114;9.130;2022-07-19T01:20:15;10.33;;;7.57;;
5684;SDS011;2865;53.114;9.130;2022-07-19T01:22:41;9.40;;;7.03;;
5684;SDS011;2865;53.114;9.130;2022-07-19T01:25:06;10.30;;;7.47;;
5684;SDS011;2865;53.114;9.130;2022-07-19T01:27:36;10.07;;;6.17;;
5684;SDS011;2865;53.114;9.130;2022-07-19T01:29:57;12.50;;;8.10;;
5684;SDS011;2865;53.114;9.130;2022-07-19T01:32:22;10.57;;;7.50;;
5684;SDS011;2865;53.114;9.130;2022-07-19T01:34:47;8.37;;;6.87;;
5684;SDS011;2865;53.114;9.130;2022-07-19T01:37:13;10.43;;;6.67;;
5684;SDS011;2865;53.114;9.130;2022-07-19T01:39:38;9.90;;;6.77;;
5684;SDS011;2865;53.114;9.130;2022-07-19T01:42:03;9.50;;;6.90;;
5684;SDS011;2865;53.114;9.130;2022-07-19T01:44:29;8.43;;;7.53;;
5684;SDS011;2865;53.114;9.130;2022-07-19T01:46:54;9.53;;;7.00;;
5684;SDS011;2865;53.114;9.130;2022-07-19T01:49:19;10.23;;;7.43;;
5684;SDS011;2865;53.114;9.130;2022-07-19T01:51:44;12.43;;;8.40;;
5684;SDS011;2865;53.114;9.130;2022-07-19T01:54:10;9.53;;;6.77;;
5684;SDS011;2865;53.114;9.130;2022-07-19T01:56:35;8.20;;;7.13;;
5684;SDS011;2865;53.114;9.130;2022-07-19T01:59:00;9.50;;;7.40;;
5684;SDS011;2865;53.114;9.130;2022-07-19T02:01:26;10.50;;;7.70;;
5684;SDS011;2865;53.114;9.130;2022-07-19T02:03:51;10.27;;;7.87;;
5684;SDS011;2865;53.114;9.130;2022-07-19T02:06:16;12.83;;;7.57;;
5684;SDS011;2865;53.114;9.130;2022-07-19T02:08:42;9.40;;;7.80;;
5684;SDS011;2865;53.114;9.130;2022-07-19T02:11:07;9.70;;;7.20;;
5684;SDS011;2865;53.114;9.130;2022-07-19T02:13:38;10.63;;;6.93;;
5684;SDS011;2865;53.114;9.130;2022-07-19T02:16:04;8.83;;;6.97;;
5684;SDS011;2865;53.114;9.130;2022-07-19T02:18:29;10.93;;;9.10;;
5684;SDS011;2865;53.114;9.130;2022-07-19T02:20:55;13.20;;;7.43;;
5684;SDS011;2865;53.114;9.130;2022-07-19T02:23:20;15.07;;;8.30;;
5684;SDS011;2865;53.114;9.130;2022-07-19T02:25:45;7.97;;;7.17;;
5684;SDS011;2865;53.114;9.130;2022-07-19T02:28:11;9.90;;;7.50;;
5684;SDS011;2865;53.114;9.130;2022-07-19T02:30:36;9.23;;;7.47;;
5684;SDS011;2865;53.114;9.130;2022-07-19T02:33:01;7.40;;;6.50;;
5684;SDS011;2865;53.114;9.130;2022-07-19T02:35:27;9.07;;;7.00;;
5684;SDS011;2865;53.114;9.130;2022-07-19T02:37:52;15.13;;;6.33;;
5684;SDS011;2865;53.114;9.130;2022-07-19T02:40:17;9.43;;;7.40;;
5684;SDS011;2865;53.114;9.130;2022-07-19T02:42:43;9.43;;;7.50;;
5684;SDS011;2865;53.114;9.130;2022-07-19T02:45:08;8.90;;;7.63;;
5684;SDS011;2865;53.114;9.130;2022-07-19T02:47:34;8.33;;;7.40;;
5684;SDS011;2865;53.114;9.130;2022-07-19T02:49:59;9.80;;;7.67;;
5684;SDS011;2865;53.114;9.130;2022-07-19T02:52:24;9.87;;;8.30;;
5684;SDS011;2865;53.114;9.130;2022-07-19T02:54:50;13.87;;;7.70;;
5684;SDS011;2865;53.114;9.130;2022-07-19T02:57:15;9.93;;;7.37;;
5684;SDS011;2865;53.114;9.130;2022-07-19T02:59:40;10.53;;;8.10;;
5684;SDS011;2865;53.114;9.130;2022-07-19T03:02:06;9.50;;;6.97;;
5684;SDS011;2865;53.114;9.130;2022-07-19T03:04:31;9.20;;;7.43;;
5684;SDS011;2865;53.114;9.130;2022-07-19T03:06:56;16.23;;;7.93;;
5684;SDS011;2865;53.114;9.130;2022-07-19T03:09:21;9.10;;;6.97;;
5684;SDS011;2865;53.114;9.130;2022-07-19T03:11:47;8.83;;;7.50;;
5684;SDS011;2865;53.114;9.130;2022-07-19T03:14:12;10.63;;;7.73;;
5684;SDS011;2865;53.114;9.130;2022-07-19T03:16:38;8.17;;;6.97;;
5684;SDS011;2865;53.114;9.130;2022-07-19T03:19:03;9.63;;;7.70;;
5684;SDS011;2865;53.114;9.130;2022-07-19T03:21:29;7.33;;;6.53;;
5684;SDS011;2865;53.114;9.130;2022-07-19T03:23:54;10.23;;;7.23;;
5684;SDS011;2865;53.114;9.130;2022-07-19T03:26:19;9.40;;;7.33;;
5684;SDS011;2865;53.114;9.130;2022-07-19T03:28:45;8.80;;;7.10;;
5684;SDS011;2865;53.114;9.130;2022-07-19T03:31:10;9.50;;;6.70;;
5684;SDS011;2865;53.114;9.130;2022-07-19T03:33:36;12.00;;;7.80;;
5684;SDS011;2865;53.114;9.130;2022-07-19T03:36:01;10.37;;;8.27;;
5684;SDS011;2865;53.114;9.130;2022-07-19T03:38:27;12.90;;;8.03;;
5684;SDS011;2865;53.114;9.130;2022-07-19T03:40:52;9.83;;;7.20;;
5684;SDS011;2865;53.114;9.130;2022-07-19T03:43:18;14.00;;;7.93;;
5684;SDS011;2865;53.114;9.130;2022-07-19T03:45:43;11.67;;;7.17;;
5684;SDS011;2865;53.114;9.130;2022-07-19T03:48:08;11.57;;;8.77;;
5684;SDS011;2865;53.114;9.130;2022-07-19T03:50:34;11.57;;;8.07;;
5684;SDS011;2865;53.114;9.130;2022-07-19T03:52:59;9.40;;;7.60;;
5684;SDS011;2865;53.114;9.130;2022-07-19T03:55:24;11.93;;;8.20;;
5684;SDS011;2865;53.114;9.130;2022-07-19T03:57:50;8.73;;;7.10;;
5684;SDS011;2865;53.114;9.130;2022-07-19T04:00:15;9.43;;;7.33;;
5684;SDS011;2865;53.114;9.130;2022-07-19T04:02:41;9.80;;;7.83;;
5684;SDS011;2865;53.114;9.130;2022-07-19T04:05:07;9.13;;;7.40;;
5684;SDS011;2865;53.114;9.130;2022-07-19T04:07:32;6.90;;;6.20;;
5684;SDS011;2865;53.114;9.130;2022-07-19T04:09:58;8.73;;;5.73;;
5684;SDS011;2865;53.114;9.130;2022-07-19T04:12:23;7.10;;;5.70;;
5684;SDS011;2865;53.114;9.130;2022-07-19T04:14:48;8.80;;;6.47;;
5684;SDS011;2865;53.114;9.130;2022-07-19T04:17:14;7.60;;;6.07;;
5684;SDS011;2865;53.114;9.130;2022-07-19T04:19:39;7.30;;;6.30;;
5684;SDS011;2865;53.114;9.130;2022-07-19T04:22:04;12.37;;;7.07;;
5684;SDS011;2865;53.114;9.130;2022-07-19T04:24:30;9.30;;;7.10;;
5684;SDS011;2865;53.114;9.130;2022-07-19T04:26:56;11.33;;;7.63;;
5684;SDS011;2865;53.114;9.130;2022-07-19T04:29:21;10.40;;;7.07;;
5684;SDS011;2865;53.114;9.130;2022-07-19T04:31:46;7.50;;;6.23;;
5684;SDS011;2865;53.114;9.130;2022-07-19T04:34:12;10.83;;;6.40;;
5684;SDS011;2865;53.114;9.130;2022-07-19T04:36:37;9.10;;;6.33;;
5684;SDS011;2865;53.114;9.130;2022-07-19T04:39:02;7.50;;;5.80;;
5684;SDS011;2865;53.114;9.130;2022-07-19T04:41:28;8.83;;;6.27;;
5684;SDS011;2865;53.114;9.130;2022-07-19T04:43:53;8.20;;;5.90;;
5684;SDS011;2865;53.114;9.130;2022-07-19T04:46:18;7.37;;;5.87;;
5684;SDS011;2865;53.114;9.130;2022-07-19T04:48:43;12.23;;;6.77;;
5684;SDS011;2865;53.114;9.130;2022-07-19T04:51:09;10.53;;;7.77;;
5684;SDS011;2865;53.114;9.130;2022-07-19T04:53:34;7.37;;;5.90;;
5684;SDS011;2865;53.114;9.130;2022-07-19T04:55:59;8.40;;;7.07;;
5684;SDS011;2865;53.114;9.130;2022-07-19T04:58:25;7.83;;;6.03;;
5684;SDS011;2865;53.114;9.130;2022-07-19T05:00:51;7.50;;;6.50;;
5684;SDS011;2865;53.114;9.130;2022-07-19T05:03:16;7.37;;;6.03;;
5684;SDS011;2865;53.114;9.130;2022-07-19T05:05:41;8.80;;;6.70;;
5684;SDS011;2865;53.114;9.130;2022-07-19T05:08:06;8.50;;;6.70;;
5684;SDS011;2865;53.114;9.130;2022-07-19T05:10:32;9.53;;;6.30;;
5684;SDS011;2865;53.114;9.130;2022-07-19T05:12:57;9.63;;;7.07;;
5684;SDS011;2865;53.114;9.130;2022-07-19T05:15:22;9.97;;;7.27;;
5684;SDS011;2865;53.114;9.130;2022-07-19T05:17:48;8.70;;;7.03;;
5684;SDS011;2865;53.114;9.130;2022-07-19T05:20:13;9.40;;;7.53;;
5684;SDS011;2865;53.114;9.130;2022-07-19T05:22:38;10.67;;;8.50;;
5684;SDS011;2865;53.114;9.130;2022-07-19T05:25:04;11.80;;;7.87;;
5684;SDS011;2865;53.114;9.130;2022-07-19T05:27:30;9.03;;;7.30;;
5684;SDS011;2865;53.114;9.130;2022-07-19T05:29:55;10.80;;;8.13;;
5684;SDS011;2865;53.114;9.130;2022-07-19T05:32:20;11.67;;;8.37;;
5684;SDS011;2865;53.114;9.130;2022-07-19T05:34:45;15.23;;;8.10;;
5684;SDS011;2865;53.114;9.130;2022-07-19T05:37:11;8.57;;;7.20;;
5684;SDS011;2865;53.114;9.130;2022-07-19T05:39:36;8.63;;;7.23;;
5684;SDS011;2865;53.114;9.130;2022-07-19T05:42:01;9.37;;;6.97;;
5684;SDS011;2865;53.114;9.130;2022-07-19T05:44:27;11.50;;;7.10;;
5684;SDS011;2865;53.114;9.130;2022-07-19T05:46:52;10.57;;;8.10;;
5684;SDS011;2865;53.114;9.130;2022-07-19T05:49:17;8.10;;;6.97;;
5684;SDS011;2865;53.114;9.130;2022-07-19T05:51:43;8.90;;;6.40;;
5684;SDS011;2865;53.114;9.130;2022-07-19T05:54:08;10.10;;;6.70;;
5684;SDS011;2865;53.114;9.130;2022-07-19T05:56:33;10.00;;;6.67;;
5684;SDS011;2865;53.114;9.130;2022-07-19T05:58:59;9.00;;;7.23;;
5684;SDS011;2865;53.114;9.130;2022-07-19T06:01:24;6.43;;;5.53;;
5684;SDS011;2865;53.114;9.130;2022-07-19T06:03:51;8.27;;;6.80;;
5684;SDS011;2865;53.114;9.130;2022-07-19T06:06:16;13.97;;;7.00;;
5684;SDS011;2865;53.114;9.130;2022-07-19T06:08:41;10.63;;;7.70;;
5684;SDS011;2865;53.114;9.130;2022-07-19T06:11:06;8.30;;;6.43;;
5684;SDS011;2865;53.114;9.130;2022-07-19T06:13:32;9.10;;;6.93;;
5684;SDS011;2865;53.114;9.130;2022-07-19T06:15:57;9.03;;;7.60;;
5684;SDS011;2865;53.114;9.130;2022-07-19T06:18:22;7.50;;;6.43;;
5684;SDS011;2865;53.114;9.130;2022-07-19T06:20:48;8.93;;;6.50;;
5684;SDS011;2865;53.114;9.130;2022-07-19T06:23:13;8.17;;;6.10;;
5684;SDS011;2865;53.114;9.130;2022-07-19T06:25:38;10.23;;;6.50;;
5684;SDS011;2865;53.114;9.130;2022-07-19T06:28:04;13.90;;;7.17;;
5684;SDS011;2865;53.114;9.130;2022-07-19T06:30:29;10.90;;;7.83;;
5684;SDS011;2865;53.114;9.130;2022-07-19T06:32:54;10.40;;;6.57;;
5684;SDS011;2865;53.114;9.130;2022-07-19T06:35:20;8.53;;;6.60;;
5684;SDS011;2865;53.114;9.130;2022-07-19T06:37:45;9.70;;;7.10;;
5684;SDS011;2865;53.114;9.130;2022-07-19T06:40:10;8.00;;;6.20;;
5684;SDS011;2865;53.114;9.130;2022-07-19T06:42:36;9.37;;;6.63;;
5684;SDS011;2865;53.114;9.130;2022-07-19T06:45:01;8.33;;;6.90;;
5684;SDS011;2865;53.114;9.130;2022-07-19T06:47:27;9.80;;;6.37;;
5684;SDS011;2865;53.114;9.130;2022-07-19T06:49:52;7.00;;;5.10;;
5684;SDS011;2865;53.114;9.130;2022-07-19T06:52:18;11.10;;;6.00;;
5684;SDS011;2865;53.114;9.130;2022-07-19T06:54:43;5.87;;;5.27;;
5684;SDS011;2865;53.114;9.130;2022-07-19T06:57:08;9.57;;;5.77;;
5684;SDS011;2865;53.114;9.130;2022-07-19T06:59:34;5.07;;;4.60;;
5684;SDS011;2865;53.114;9.130;2022-07-19T07:01:59;5.87;;;4.30;;
5684;SDS011;2865;53.114;9.130;2022-07-19T07:04:24;5.13;;;4.43;;
5684;SDS011;2865;53.114;9.130;2022-07-19T07:06:50;5.17;;;4.67;;
5684;SDS011;2865;53.114;9.130;2022-07-19T07:09:15;5.23;;;4.73;;
5684;SDS011;2865;53.114;9.130;2022-07-19T07:11:40;5.33;;;4.70;;
5684;SDS011;2865;53.114;9.130;2022-07-19T07:14:06;5.30;;;4.80;;
5684;SDS011;2865;53.114;9.130;2022-07-19T07:16:31;7.50;;;4.50;;
5684;SDS011;2865;53.114;9.130;2022-07-19T07:18:56;4.47;;;4.00;;
5684;SDS011;2865;53.114;9.130;2022-07-19T07:21:22;5.00;;;4.50;;
5684;SDS011;2865;53.114;9.130;2022-07-19T07:23:47;4.70;;;3.90;;
5684;SDS011;2865;53.114;9.130;2022-07-19T07:26:12;6.93;;;4.80;;
5684;SDS011;2865;53.114;9.130;2022-07-19T07:28:37;8.00;;;4.87;;
5684;SDS011;2865;53.114;9.130;2022-07-19T07:31:03;10.17;;;4.70;;
5684;SDS011;2865;53.114;9.130;2022-07-19T07:33:28;6.07;;;3.97;;
5684;SDS011;2865;53.114;9.130;2022-07-19T07:35:53;5.90;;;3.70;;
5684;SDS011;2865;53.114;9.130;2022-07-19T07:38:19;4.73;;;3.23;;
5684;SDS011;2865;53.114;9.130;2022-07-19T07:40:44;5.03;;;4.10;;
5684;SDS011;2865;53.114;9.130;2022-07-19T07:43:09;2.93;;;2.63;;
5684;SDS011;2865;53.114;9.130;2022-07-19T07:45:37;5.30;;;4.37;;
5684;SDS011;2865;53.114;9.130;2022-07-19T07:48:00;6.90;;;3.60;;
5684;SDS011;2865;53.114;9.130;2022-07-19T07:50:25;5.10;;;3.97;;
5684;SDS011;2865;53.114;9.130;2022-07-19T07:52:51;4.40;;;3.97;;
5684;SDS011;2865;53.114;9.130;2022-07-19T07:55:16;5.50;;;3.60;;
5684;SDS011;2865;53.114;9.130;2022-07-19T07:57:42;5.27;;;3.70;;
5684;SDS011;2865;53.114;9.130;2022-07-19T08:00:07;5.33;;;3.67;;
5684;SDS011;2865;53.114;9.130;2022-07-19T08:02:39;4.70;;;4.10;;
5684;SDS011;2865;53.114;9.130;2022-07-19T08:05:04;3.87;;;3.33;;
5684;SDS011;2865;53.114;9.130;2022-07-19T08:07:29;4.80;;;3.40;;
5684;SDS011;2865;53.114;9.130;2022-07-19T08:09:55;7.00;;;3.60;;
5684;SDS011;2865;53.114;9.130;2022-07-19T08:12:20;4.03;;;2.97;;
5684;SDS011;2865;53.114;9.130;2022-07-19T08:14:45;4.50;;;3.50;;
5684;SDS011;2865;53.114;9.130;2022-07-19T08:17:11;5.10;;;3.87;;
5684;SDS011;2865;53.114;9.130;2022-07-19T08:19:36;5.63;;;4.27;;
5684;SDS011;2865;53.114;9.130;2022-07-19T08:22:01;4.37;;;3.70;;
5684;SDS011;2865;53.114;9.130;2022-07-19T08:24:26;4.10;;;3.60;;
5684;SDS011;2865;53.114;9.130;2022-07-19T08:26:52;5.67;;;3.73;;
5684;SDS011;2865;53.114;9.130;2022-07-19T08:29:17;4.70;;;3.60;;
5684;SDS011;2865;53.114;9.130;2022-07-19T08:31:42;6.60;;;3.80;;
5684;SDS011;2865;53.114;9.130;2022-07-19T08:34:08;5.90;;;3.60;;
5684;SDS011;2865;53.114;9.130;2022-07-19T08:36:33;5.90;;;3.90;;
5684;SDS011;2865;53.114;9.130;2022-07-19T08:38:58;5.67;;;3.73;;
5684;SDS011;2865;53.114;9.130;2022-07-19T08:41:24;5.90;;;3.83;;
5684;SDS011;2865;53.114;9.130;2022-07-19T08:43:49;4.03;;;3.63;;
5684;SDS011;2865;53.114;9.130;2022-07-19T08:46:14;4.97;;;3.70;;
5684;SDS011;2865;53.114;9.130;2022-07-19T08:48:39;3.87;;;3.50;;
5684;SDS011;2865;53.114;9.130;2022-07-19T08:51:05;4.50;;;3.70;;
5684;SDS011;2865;53.114;9.130;2022-07-19T08:53:31;5.73;;;3.20;;
5684;SDS011;2865;53.114;9.130;2022-07-19T08:55:55;6.80;;;2.80;;
5684;SDS011;2865;53.114;9.130;2022-07-19T08:58:21;7.03;;;3.40;;
5684;SDS011;2865;53.114;9.130;2022-07-19T09:00:46;3.27;;;2.90;;
5684;SDS011;2865;53.114;9.130;2022-07-19T09:03:11;4.37;;;3.00;;
5684;SDS011;2865;53.114;9.130;2022-07-19T09:05:37;6.30;;;2.90;;
5684;SDS011;2865;53.114;9.130;2022-07-19T09:08:06;3.47;;;2.63;;
5684;SDS011;2865;53.114;9.130;2022-07-19T09:10:40;4.40;;;3.00;;
5684;SDS011;2865;53.114;9.130;2022-07-19T09:13:08;3.30;;;2.63;;
5684;SDS011;2865;53.114;9.130;2022-07-19T09:15:35;2.77;;;2.53;;
5684;SDS011;2865;53.114;9.130;2022-07-19T09:18:05;2.40;;;2.20;;
5684;SDS011;2865;53.114;9.130;2022-07-19T09:20:30;2.87;;;2.40;;
5684;SDS011;2865;53.114;9.130;2022-07-19T09:22:55;2.87;;;2.40;;
5684;SDS011;2865;53.114;9.130;2022-07-19T09:27:57;2.20;;;1.83;;
5684;SDS011;2865;53.114;9.130;2022-07-19T09:33:04;4.80;;;1.97;;
5684;SDS011;2865;53.114;9.130;2022-07-19T09:38:13;2.80;;;2.10;;
5684;SDS011;2865;53.114;9.130;2022-07-19T09:40:27;1.77;;;1.67;;
5684;SDS011;2865;53.114;9.130;2022-07-19T09:42:50;3.03;;;2.10;;
5684;SDS011;2865;53.114;9.130;2022-07-19T09:45:16;3.97;;;2.10;;
5684;SDS011;2865;53.114;9.130;2022-07-19T09:47:42;2.47;;;2.00;;
5684;SDS011;2865;53.114;9.130;2022-07-19T09:50:07;2.80;;;2.07;;
5684;SDS011;2865;53.114;9.130;2022-07-19T09:52:33;1.83;;;1.73;;
5684;SDS011;2865;53.114;9.130;2022-07-19T09:54:58;2.10;;;1.90;;
5684;SDS011;2865;53.114;9.130;2022-07-19T09:57:24;3.47;;;1.60;;
5684;SDS011;2865;53.114;9.130;2022-07-19T09:59:50;4.13;;;2.10;;
5684;SDS011;2865;53.114;9.130;2022-07-19T10:02:15;7.43;;;1.90;;
5684;SDS011;2865;53.114;9.130;2022-07-19T10:04:40;3.77;;;1.90;;
5684;SDS011;2865;53.114;9.130;2022-07-19T10:07:06;4.00;;;2.30;;
5684;SDS011;2865;53.114;9.130;2022-07-19T10:09:31;2.63;;;1.70;;
5684;SDS011;2865;53.114;9.130;2022-07-19T10:11:56;1.90;;;1.60;;
5684;SDS011;2865;53.114;9.130;2022-07-19T10:14:21;3.53;;;1.60;;
5684;SDS011;2865;53.114;9.130;2022-07-19T10:16:55;7.60;;;2.07;;
5684;SDS011;2865;53.114;9.130;2022-07-19T10:22:00;4.97;;;2.10;;
5684;SDS011;2865;53.114;9.130;2022-07-19T10:25:00;5.77;;;2.10;;
5684;SDS011;2865;53.114;9.130;2022-07-19T10:27:08;4.00;;;2.07;;
5684;SDS011;2865;53.114;9.130;2022-07-19T10:29:34;4.30;;;1.80;;
5684;SDS011;2865;53.114;9.130;2022-07-19T10:32:03;2.50;;;1.50;;
5684;SDS011;2865;53.114;9.130;2022-07-19T10:34:27;3.17;;;2.33;;
5684;SDS011;2865;53.114;9.130;2022-07-19T10:36:52;2.33;;;2.00;;
5684;SDS011;2865;53.114;9.130;2022-07-19T10:39:19;1.70;;;1.30;;
5684;SDS011;2865;53.114;9.130;2022-07-19T10:42:06;1.87;;;1.40;;
5684;SDS011;2865;53.114;9.130;2022-07-19T10:44:31;1.83;;;1.63;;
5684;SDS011;2865;53.114;9.130;2022-07-19T10:46:56;6.30;;;1.80;;
5684;SDS011;2865;53.114;9.130;2022-07-19T10:52:24;3.50;;;2.00;;
5684;SDS011;2865;53.114;9.130;2022-07-19T10:54:25;3.90;;;1.50;;
5684;SDS011;2865;53.114;9.130;2022-07-19T10:56:56;2.13;;;1.80;;
5684;SDS011;2865;53.114;9.130;2022-07-19T11:01:54;1.97;;;1.30;;
5684;SDS011;2865;53.114;9.130;2022-07-19T11:04:22;1.85;;;1.50;;
5684;SDS011;2865;53.114;9.130;2022-07-19T11:06:47;3.10;;;1.30;;
5684;SDS011;2865;53.114;9.130;2022-07-19T11:09:12;1.40;;;1.23;;
5684;SDS011;2865;53.114;9.130;2022-07-19T11:11:38;1.95;;;1.60;;
5684;SDS011;2865;53.114;9.130;2022-07-19T11:14:03;1.67;;;1.37;;
5684;SDS011;2865;53.114;9.130;2022-07-19T11:16:28;10.00;;;1.80;;
5684;SDS011;2865;53.114;9.130;2022-07-19T11:19:03;1.93;;;1.60;;
5684;SDS011;2865;53.114;9.130;2022-07-19T11:21:30;1.60;;;1.50;;
5684;SDS011;2865;53.114;9.130;2022-07-19T11:23:54;2.80;;;1.60;;
5684;SDS011;2865;53.114;9.130;2022-07-19T11:26:20;1.93;;;1.73;;
5684;SDS011;2865;53.114;9.130;2022-07-19T11:28:46;2.40;;;1.30;;
5684;SDS011;2865;53.114;9.130;2022-07-19T11:31:14;1.50;;;1.20;;
5684;SDS011;2865;53.114;9.130;2022-07-19T11:33:39;3.85;;;1.40;;
5684;SDS011;2865;53.114;9.130;2022-07-19T11:36:04;1.60;;;1.30;;
5684;SDS011;2865;53.114;9.130;2022-07-19T11:38:34;2.50;;;1.80;;
5684;SDS011;2865;53.114;9.130;2022-07-19T11:41:03;1.90;;;1.40;;
5684;SDS011;2865;53.114;9.130;2022-07-19T11:43:28;15.90;;;2.40;;
5684;SDS011;2865;53.114;9.130;2022-07-19T11:45:53;1.55;;;1.30;;
5684;SDS011;2865;53.114;9.130;2022-07-19T11:48:25;1.40;;;1.30;;
5684;SDS011;2865;53.114;9.130;2022-07-19T11:53:21;1.60;;;1.10;;
5684;SDS011;2865;53.114;9.130;2022-07-19T11:55:47;3.30;;;1.25;;
5684;SDS011;2865;53.114;9.130;2022-07-19T11:58:12;1.30;;;1.20;;
5684;SDS011;2865;53.114;9.130;2022-07-19T12:00:37;3.30;;;1.40;;
5684;SDS011;2865;53.114;9.130;2022-07-19T12:03:04;1.20;;;1.10;;
5684;SDS011;2865;53.114;9.130;2022-07-19T12:05:28;1.95;;;1.25;;
5684;SDS011;2865;53.114;9.130;2022-07-19T12:07:54;4.55;;;1.45;;
5684;SDS011;2865;53.114;9.130;2022-07-19T12:10:32;1.60;;;1.20;;
5684;SDS011;2865;53.114;9.130;2022-07-19T12:13:05;2.90;;;1.30;;
5684;SDS011;2865;53.114;9.130;2022-07-19T12:18:07;3.20;;;1.60;;
5684;SDS011;2865;53.114;9.130;2022-07-19T12:20:32;1.80;;;1.20;;
5684;SDS011;2865;53.114;9.130;2022-07-19T12:23:10;1.50;;;1.40;;
5684;SDS011;2865;53.114;9.130;2022-07-19T12:27:59;2.10;;;1.80;;
5684;SDS011;2865;53.114;9.130;2022-07-19T12:30:25;1.70;;;1.60;;
5684;SDS011;2865;53.114;9.130;2022-07-19T12:32:50;3.60;;;1.50;;
5684;SDS011;2865;53.114;9.130;2022-07-19T12:35:15;2.40;;;1.90;;
5684;SDS011;2865;53.114;9.130;2022-07-19T12:37:41;1.65;;;1.30;;
5684;SDS011;2865;53.114;9.130;2022-07-19T12:40:09;2.30;;;2.10;;
5684;SDS011;2865;53.114;9.130;2022-07-19T12:42:38;3.40;;;1.90;;
5684;SDS011;2865;53.114;9.130;2022-07-19T12:45:05;2.10;;;1.80;;
5684;SDS011;2865;53.114;9.130;2022-07-19T12:47:30;2.20;;;2.00;;
5684;SDS011;2865;53.114;9.130;2022-07-19T12:49:56;2.30;;;1.70;;
5684;SDS011;2865;53.114;9.130;2022-07-19T12:52:21;4.50;;;1.80;;
5684;SDS011;2865;53.114;9.130;2022-07-19T12:54:46;1.50;;;1.40;;
5684;SDS011;2865;53.114;9.130;2022-07-19T12:57:12;2.70;;;2.10;;
5684;SDS011;2865;53.114;9.130;2022-07-19T12:59:37;1.70;;;1.60;;
5684;SDS011;2865;53.114;9.130;2022-07-19T13:02:04;2.90;;;1.90;;
5684;SDS011;2865;53.114;9.130;2022-07-19T13:04:32;2.50;;;1.80;;
5684;SDS011;2865;53.114;9.130;2022-07-19T13:06:58;2.60;;;1.70;;
5684;SDS011;2865;53.114;9.130;2022-07-19T13:09:23;4.80;;;1.70;;
5684;SDS011;2865;53.114;9.130;2022-07-19T13:11:48;3.45;;;1.85;;
5684;SDS011;2865;53.114;9.130;2022-07-19T13:14:13;2.50;;;2.15;;
5684;SDS011;2865;53.114;9.130;2022-07-19T13:16:39;3.10;;;2.20;;
5684;SDS011;2865;53.114;9.130;2022-07-19T13:19:04;4.10;;;2.10;;
5684;SDS011;2865;53.114;9.130;2022-07-19T13:21:30;2.40;;;2.20;;
5684;SDS011;2865;53.114;9.130;2022-07-19T13:23:55;2.95;;;2.10;;
5684;SDS011;2865;53.114;9.130;2022-07-19T13:26:20;2.00;;;1.90;;
5684;SDS011;2865;53.114;9.130;2022-07-19T13:28:45;2.15;;;1.95;;
5684;SDS011;2865;53.114;9.130;2022-07-19T13:31:11;7.50;;;1.70;;
5684;SDS011;2865;53.114;9.130;2022-07-19T13:33:36;2.40;;;2.20;;
5684;SDS011;2865;53.114;9.130;2022-07-19T13:36:02;3.20;;;2.00;;
5684;SDS011;2865;53.114;9.130;2022-07-19T13:38:27;2.80;;;2.20;;
5684;SDS011;2865;53.114;9.130;2022-07-19T13:40:52;2.40;;;2.15;;
5684;SDS011;2865;53.114;9.130;2022-07-19T13:43:17;2.10;;;1.90;;
5684;SDS011;2865;53.114;9.130;2022-07-19T13:45:43;3.50;;;2.30;;
5684;SDS011;2865;53.114;9.130;2022-07-19T13:48:08;2.60;;;1.70;;
5684;SDS011;2865;53.114;9.130;2022-07-19T13:50:33;3.70;;;2.10;;
5684;SDS011;2865;53.114;9.130;2022-07-19T13:52:59;3.35;;;2.45;;
5684;SDS011;2865;53.114;9.130;2022-07-19T13:55:24;2.25;;;1.75;;
5684;SDS011;2865;53.114;9.130;2022-07-19T13:57:49;2.20;;;2.00;;
5684;SDS011;2865;53.114;9.130;2022-07-19T14:00:15;2.35;;;1.85;;
5684;SDS011;2865;53.114;9.130;2022-07-19T14:02:41;4.40;;;2.10;;
5684;SDS011;2865;53.114;9.130;2022-07-19T14:05:06;10.97;;;2.47;;
5684;SDS011;2865;53.114;9.130;2022-07-19T14:07:32;4.30;;;2.35;;
5684;SDS011;2865;53.114;9.130;2022-07-19T14:09:58;4.55;;;2.20;;
5684;SDS011;2865;53.114;9.130;2022-07-19T14:12:23;2.30;;;2.10;;
5684;SDS011;2865;53.114;9.130;2022-07-19T14:14:48;3.40;;;2.63;;
5684;SDS011;2865;53.114;9.130;2022-07-19T14:17:13;7.00;;;2.30;;
5684;SDS011;2865;53.114;9.130;2022-07-19T14:19:39;2.75;;;2.00;;
5684;SDS011;2865;53.114;9.130;2022-07-19T14:22:04;2.30;;;2.10;;
5684;SDS011;2865;53.114;9.130;2022-07-19T14:24:29;3.30;;;2.30;;
5684;SDS011;2865;53.114;9.130;2022-07-19T14:26:55;3.10;;;2.13;;
5684;SDS011;2865;53.114;9.130;2022-07-19T14:29:20;4.00;;;2.30;;
5684;SDS011;2865;53.114;9.130;2022-07-19T14:31:45;5.40;;;2.20;;
5684;SDS011;2865;53.114;9.130;2022-07-19T14:34:11;5.35;;;2.10;;
5684;SDS011;2865;53.114;9.130;2022-07-19T14:36:36;3.50;;;2.60;;
5684;SDS011;2865;53.114;9.130;2022-07-19T14:39:01;4.00;;;2.70;;
5684;SDS011;2865;53.114;9.130;2022-07-19T14:41:27;3.57;;;2.20;;
5684;SDS011;2865;53.114;9.130;2022-07-19T14:43:52;3.90;;;3.50;;
5684;SDS011;2865;53.114;9.130;2022-07-19T14:46:17;2.80;;;1.80;;
5684;SDS011;2865;53.114;9.130;2022-07-19T14:48:43;2.70;;;2.20;;
5684;SDS011;2865;53.114;9.130;2022-07-19T14:51:08;2.95;;;2.65;;
5684;SDS011;2865;53.114;9.130;2022-07-19T14:53:33;3.45;;;2.20;;
5684;SDS011;2865;53.114;9.130;2022-07-19T14:55:59;3.50;;;2.17;;
5684;SDS011;2865;53.114;9.130;2022-07-19T14:58:24;7.00;;;2.00;;
5684;SDS011;2865;53.114;9.130;2022-07-19T15:00:49;4.25;;;2.85;;
5684;SDS011;2865;53.114;9.130;2022-07-19T15:03:15;2.35;;;2.10;;
5684;SDS011;2865;53.114;9.130;2022-07-19T15:05:40;3.00;;;1.90;;
5684;SDS011;2865;53.114;9.130;2022-07-19T15:08:05;4.60;;;2.45;;
5684;SDS011;2865;53.114;9.130;2022-07-19T15:10:31;4.15;;;1.85;;
5684;SDS011;2865;53.114;9.130;2022-07-19T15:12:56;5.90;;;2.70;;
5684;SDS011;2865;53.114;9.130;2022-07-19T15:15:21;10.20;;;2.10;;
5684;SDS011;2865;53.114;9.130;2022-07-19T15:17:47;3.73;;;2.20;;
5684;SDS011;2865;53.114;9.130;2022-07-19T15:20:12;4.30;;;2.43;;
5684;SDS011;2865;53.114;9.130;2022-07-19T15:22:38;4.37;;;2.47;;
5684;SDS011;2865;53.114;9.130;2022-07-19T15:25:05;3.90;;;2.27;;